sensor_id;sensor_type;location;lat;lon;timestamp;pressure;altitude;pressure_sealevel;temperature;humidity
43420;BME280;29017;51.514;-0.178;2023-07-13T00:01:54;101008.84;;;19.47;74.23
43420;BME280;29017;51.514;-0.178;2023-07-13T00:04:24;101001.03;;;19.46;74.37
43420;BME280;29017;51.514;-0.178;2023-07-13T00:06:53;101006.38;;;19.46;74.07
43420;BME280;29017;51.514;-0.178;2023-07-13T00:09:21;101004.75;;;19.45;73.88
43420;BME280;29017;51.514;-0.178;2023-07-13T00:11:55;101003.72;;;19.46;74.00
43420;BME280;29017;51.514;-0.178;2023-07-13T00:14:23;101012.13;;;19.43;73.24
43420;BME280;29017;51.514;-0.178;2023-07-13T00:16:51;101013.34;;;19.40;73.18
43420;BME280;29017;51.514;-0.178;2023-07-13T00:19:19;101009.44;;;19.36;73.26
43420;BME280;29017;51.514;-0.178;2023-07-13T00:21:46;101006.38;;;19.33;73.25
43420;BME280;29017;51.514;-0.178;2023-07-13T00:24:17;101007.59;;;19.23;73.68
43420;BME280;29017;51.514;-0.178;2023-07-13T00:26:51;101011.28;;;19.22;74.56
43420;BME280;29017;51.514;-0.178;2023-07-13T00:29:18;101002.25;;;19.17;74.48
43420;BME280;29017;51.514;-0.178;2023-07-13T00:31:48;101002.25;;;19.17;74.37
43420;BME280;29017;51.514;-0.178;2023-07-13T00:34:15;101013.94;;;19.16;74.53
43420;BME280;29017;51.514;-0.178;2023-07-13T00:36:42;101006.38;;;19.13;74.51
43420;BME280;29017;51.514;-0.178;2023-07-13T00:39:09;101009.84;;;19.13;75.02
43420;BME280;29017;51.514;-0.178;2023-07-13T00:41:36;101008.22;;;19.12;74.63
43420;BME280;29017;51.514;-0.178;2023-07-13T00:44:13;101015.19;;;19.13;74.60
43420;BME280;29017;51.514;-0.178;2023-07-13T00:46:41;101005.13;;;19.15;74.64
43420;BME280;29017;51.514;-0.178;2023-07-13T00:49:13;101004.94;;;19.17;74.11
43420;BME280;29017;51.514;-0.178;2023-07-13T00:54:16;101005.13;;;19.09;74.38
43420;BME280;29017;51.514;-0.178;2023-07-13T00:56:45;101010.47;;;19.02;73.90
43420;BME280;29017;51.514;-0.178;2023-07-13T00:59:15;101006.97;;;19.02;74.28
43420;BME280;29017;51.514;-0.178;2023-07-13T01:01:43;101009.81;;;19.00;73.60
43420;BME280;29017;51.514;-0.178;2023-07-13T01:04:10;101005.53;;;18.99;74.39
43420;BME280;29017;51.514;-0.178;2023-07-13T01:06:38;101009.81;;;19.00;74.25
43420;BME280;29017;51.514;-0.178;2023-07-13T01:09:07;101008.00;;;18.94;74.31
43420;BME280;29017;51.514;-0.178;2023-07-13T01:11:35;101015.78;;;18.89;73.60
43420;BME280;29017;51.514;-0.178;2023-07-13T01:14:03;101007.56;;;18.84;73.99
43420;BME280;29017;51.514;-0.178;2023-07-13T01:16:32;101003.63;;;18.80;74.27
43420;BME280;29017;51.514;-0.178;2023-07-13T01:19:00;101009.19;;;18.85;74.06
43420;BME280;29017;51.514;-0.178;2023-07-13T01:21:29;101006.31;;;18.87;74.57
43420;BME280;29017;51.514;-0.178;2023-07-13T01:23:58;101015.78;;;18.89;74.21
43420;BME280;29017;51.514;-0.178;2023-07-13T01:26:26;101007.78;;;18.89;74.33
43420;BME280;29017;51.514;-0.178;2023-07-13T01:28:54;101009.41;;;18.90;74.05
43420;BME280;29017;51.514;-0.178;2023-07-13T01:31:23;101010.84;;;18.93;74.83
43420;BME280;29017;51.514;-0.178;2023-07-13T01:33:51;101010.84;;;18.93;74.82
43420;BME280;29017;51.514;-0.178;2023-07-13T01:36:18;101011.66;;;18.87;75.27
43420;BME280;29017;51.514;-0.178;2023-07-13T01:38:48;101007.75;;;18.76;75.40
43420;BME280;29017;51.514;-0.178;2023-07-13T01:41:15;101012.84;;;18.71;75.64
43420;BME280;29017;51.514;-0.178;2023-07-13T01:43:42;101013.47;;;18.66;75.89
43420;BME280;29017;51.514;-0.178;2023-07-13T01:46:09;101009.97;;;18.66;76.21
43420;BME280;29017;51.514;-0.178;2023-07-13T01:48:48;100997.88;;;18.63;76.87
43420;BME280;29017;51.514;-0.178;2023-07-13T01:51:17;101008.72;;;18.62;76.38
43420;BME280;29017;51.514;-0.178;2023-07-13T01:53:45;101001.94;;;18.59;76.82
43420;BME280;29017;51.514;-0.178;2023-07-13T01:56:12;101001.94;;;18.59;78.20
43420;BME280;29017;51.514;-0.178;2023-07-13T01:58:40;101002.34;;;18.56;77.73
43420;BME280;29017;51.514;-0.178;2023-07-13T02:01:07;101000.06;;;18.53;77.31
43420;BME280;29017;51.514;-0.178;2023-07-13T02:03:34;101000.69;;;18.49;76.99
43420;BME280;29017;51.514;-0.178;2023-07-13T02:06:01;101003.72;;;18.46;77.34
43420;BME280;29017;51.514;-0.178;2023-07-13T02:08:28;100990.41;;;18.46;77.30
43420;BME280;29017;51.514;-0.178;2023-07-13T02:10:57;100999.41;;;18.45;77.65
43420;BME280;29017;51.514;-0.178;2023-07-13T02:13:24;100991.41;;;18.38;77.36
43420;BME280;29017;51.514;-0.178;2023-07-13T02:15:51;100997.94;;;18.35;77.89
43420;BME280;29017;51.514;-0.178;2023-07-13T02:18:19;100989.75;;;18.37;77.81
43420;BME280;29017;51.514;-0.178;2023-07-13T02:20:46;100996.28;;;18.34;77.59
43420;BME280;29017;51.514;-0.178;2023-07-13T02:23:13;100998.34;;;18.32;77.95
43420;BME280;29017;51.514;-0.178;2023-07-13T02:25:40;100989.31;;;18.27;77.83
43420;BME280;29017;51.514;-0.178;2023-07-13T02:28:08;100989.28;;;18.20;77.80
43420;BME280;29017;51.514;-0.178;2023-07-13T02:30:35;100993.78;;;18.13;78.61
43420;BME280;29017;51.514;-0.178;2023-07-13T02:33:02;100996.03;;;18.16;78.92
43420;BME280;29017;51.514;-0.178;2023-07-13T02:35:30;100996.25;;;18.21;78.65
43420;BME280;29017;51.514;-0.178;2023-07-13T02:37:58;100989.09;;;18.22;78.36
43420;BME280;29017;51.514;-0.178;2023-07-13T02:40:25;100986.00;;;18.18;78.28
43420;BME280;29017;51.514;-0.178;2023-07-13T02:42:53;100997.88;;;18.16;78.68
43420;BME280;29017;51.514;-0.178;2023-07-13T02:45:20;100995.00;;;18.17;79.30
43420;BME280;29017;51.514;-0.178;2023-07-13T02:47:47;100996.03;;;18.16;78.75
43420;BME280;29017;51.514;-0.178;2023-07-13T02:50:14;101000.53;;;18.16;78.75
43420;BME280;29017;51.514;-0.178;2023-07-13T02:52:41;100999.47;;;18.10;78.81
43420;BME280;29017;51.514;-0.178;2023-07-13T02:55:09;100996.00;;;18.10;78.80
43420;BME280;29017;51.514;-0.178;2023-07-13T02:57:37;101001.31;;;18.10;79.25
43420;BME280;29017;51.514;-0.178;2023-07-13T03:00:05;101009.50;;;18.08;78.93
43420;BME280;29017;51.514;-0.178;2023-07-13T03:02:33;101006.59;;;18.03;80.19
43420;BME280;29017;51.514;-0.178;2023-07-13T03:05:00;100999.44;;;18.04;80.26
43420;BME280;29017;51.514;-0.178;2023-07-13T03:07:28;101000.66;;;18.01;79.91
43420;BME280;29017;51.514;-0.178;2023-07-13T03:09:56;101009.66;;;18.00;79.82
43420;BME280;29017;51.514;-0.178;2023-07-13T03:12:24;101005.75;;;17.96;80.47
43420;BME280;29017;51.514;-0.178;2023-07-13T03:14:51;101004.13;;;17.95;80.61
43420;BME280;29017;51.514;-0.178;2023-07-13T03:17:18;101003.09;;;17.96;81.00
43420;BME280;29017;51.514;-0.178;2023-07-13T03:19:46;100997.78;;;17.96;81.20
43420;BME280;29017;51.514;-0.178;2023-07-13T03:22:17;101001.03;;;17.98;80.92
43420;BME280;29017;51.514;-0.178;2023-07-13T03:24:45;101004.75;;;17.97;80.73
43420;BME280;29017;51.514;-0.178;2023-07-13T03:27:13;101011.50;;;18.00;80.87
43420;BME280;29017;51.514;-0.178;2023-07-13T03:29:40;101008.25;;;17.98;80.74
43420;BME280;29017;51.514;-0.178;2023-07-13T03:32:08;101015.59;;;17.95;81.16
43420;BME280;29017;51.514;-0.178;2023-07-13T03:34:35;101011.28;;;17.94;81.35
43420;BME280;29017;51.514;-0.178;2023-07-13T03:37:03;101013.88;;;17.88;80.96
43420;BME280;29017;51.514;-0.178;2023-07-13T03:39:31;101018.97;;;17.83;81.31
43420;BME280;29017;51.514;-0.178;2023-07-13T03:41:58;101025.53;;;17.80;81.64
43420;BME280;29017;51.514;-0.178;2023-07-13T03:44:25;101022.88;;;17.80;81.78
43420;BME280;29017;51.514;-0.178;2023-07-13T03:46:52;101025.09;;;17.77;81.93
43420;BME280;29017;51.514;-0.178;2023-07-13T03:49:19;101023.06;;;17.79;82.09
43420;BME280;29017;51.514;-0.178;2023-07-13T03:51:47;101020.84;;;17.82;82.08
43420;BME280;29017;51.514;-0.178;2023-07-13T03:54:18;101022.22;;;17.78;81.65
43420;BME280;29017;51.514;-0.178;2023-07-13T03:56:45;101022.81;;;17.74;81.60
43420;BME280;29017;51.514;-0.178;2023-07-13T03:59:13;101026.72;;;17.71;81.78
43420;BME280;29017;51.514;-0.178;2023-07-13T04:01:40;101024.66;;;17.73;82.35
43420;BME280;29017;51.514;-0.178;2023-07-13T04:04:07;101024.28;;;17.76;82.08
43420;BME280;29017;51.514;-0.178;2023-07-13T04:06:34;101028.97;;;17.74;81.93
43420;BME280;29017;51.514;-0.178;2023-07-13T04:09:03;101032.47;;;17.75;81.74
43420;BME280;29017;51.514;-0.178;2023-07-13T04:11:33;101032.06;;;17.78;81.49
43420;BME280;29017;51.514;-0.178;2023-07-13T04:14:00;101039.44;;;17.76;81.93
43420;BME280;29017;51.514;-0.178;2023-07-13T04:16:28;101032.84;;;17.72;82.01
43420;BME280;29017;51.514;-0.178;2023-07-13T04:18:56;101042.69;;;17.71;82.00
43420;BME280;29017;51.514;-0.178;2023-07-13T04:21:29;101037.53;;;17.70;81.89
43420;BME280;29017;51.514;-0.178;2023-07-13T04:23:57;101044.09;;;17.67;81.57
43420;BME280;29017;51.514;-0.178;2023-07-13T04:26:25;101044.28;;;17.66;81.69
43420;BME280;29017;51.514;-0.178;2023-07-13T04:28:52;101038.13;;;17.65;82.02
43420;BME280;29017;51.514;-0.178;2023-07-13T04:31:20;101039.97;;;17.65;82.21
43420;BME280;29017;51.514;-0.178;2023-07-13T04:33:48;101047.50;;;17.61;81.80
43420;BME280;29017;51.514;-0.178;2023-07-13T04:36:16;101051.84;;;17.62;81.85
43420;BME280;29017;51.514;-0.178;2023-07-13T04:38:43;101046.88;;;17.59;81.37
43420;BME280;29017;51.514;-0.178;2023-07-13T04:41:12;101051.56;;;17.57;81.40
43420;BME280;29017;51.514;-0.178;2023-07-13T04:43:40;101056.66;;;17.59;81.55
43420;BME280;29017;51.514;-0.178;2023-07-13T04:46:11;101054.84;;;17.59;82.21
43420;BME280;29017;51.514;-0.178;2023-07-13T04:48:39;101059.31;;;17.59;81.61
43420;BME280;29017;51.514;-0.178;2023-07-13T04:51:07;101061.00;;;17.60;81.81
43420;BME280;29017;51.514;-0.178;2023-07-13T04:53:34;101059.00;;;17.62;81.85
43420;BME280;29017;51.514;-0.178;2023-07-13T04:56:03;101065.75;;;17.64;82.08
43420;BME280;29017;51.514;-0.178;2023-07-13T04:58:31;101069.06;;;17.66;81.95
43420;BME280;29017;51.514;-0.178;2023-07-13T05:01:03;101057.19;;;17.69;81.46
43420;BME280;29017;51.514;-0.178;2023-07-13T05:03:30;101061.25;;;17.65;81.12
43420;BME280;29017;51.514;-0.178;2023-07-13T05:06:00;101064.31;;;17.62;81.39
43420;BME280;29017;51.514;-0.178;2023-07-13T05:08:28;101069.41;;;17.63;81.66
43420;BME280;29017;51.514;-0.178;2023-07-13T05:10:59;101063.91;;;17.65;81.77
43420;BME280;29017;51.514;-0.178;2023-07-13T05:13:27;101064.09;;;17.63;81.88
43420;BME280;29017;51.514;-0.178;2023-07-13T05:15:59;101070.25;;;17.64;81.66
43420;BME280;29017;51.514;-0.178;2023-07-13T05:18:27;101065.13;;;17.62;81.61
43420;BME280;29017;51.514;-0.178;2023-07-13T05:20:58;101066.56;;;17.65;81.53
43420;BME280;29017;51.514;-0.178;2023-07-13T05:23:27;101074.75;;;17.63;81.20
43420;BME280;29017;51.514;-0.178;2023-07-13T05:25:55;101079.06;;;17.64;81.73
43420;BME280;29017;51.514;-0.178;2023-07-13T05:28:23;101080.72;;;17.65;82.31
43420;BME280;29017;51.514;-0.178;2023-07-13T05:30:50;101077.41;;;17.63;81.88
43420;BME280;29017;51.514;-0.178;2023-07-13T05:33:17;101083.19;;;17.67;81.99
43420;BME280;29017;51.514;-0.178;2023-07-13T05:35:45;101087.28;;;17.69;81.75
43420;BME280;29017;51.514;-0.178;2023-07-13T05:38:12;101082.19;;;17.74;81.59
43420;BME280;29017;51.514;-0.178;2023-07-13T05:40:41;101087.97;;;17.78;81.27
43420;BME280;29017;51.514;-0.178;2023-07-13T05:43:09;101086.00;;;17.86;81.04
43420;BME280;29017;51.514;-0.178;2023-07-13T05:45:36;101094.59;;;17.88;81.38
43420;BME280;29017;51.514;-0.178;2023-07-13T05:48:03;101088.44;;;17.88;80.81
43420;BME280;29017;51.514;-0.178;2023-07-13T05:50:31;101100.75;;;17.89;81.24
43420;BME280;29017;51.514;-0.178;2023-07-13T05:53:01;101101.56;;;17.89;80.74
43420;BME280;29017;51.514;-0.178;2023-07-13T05:55:28;101105.31;;;17.95;80.93
43420;BME280;29017;51.514;-0.178;2023-07-13T05:57:56;101108.84;;;18.02;80.85
43420;BME280;29017;51.514;-0.178;2023-07-13T06:00:25;101114.41;;;18.07;80.45
43420;BME280;29017;51.514;-0.178;2023-07-13T06:02:53;101115.84;;;18.10;80.60
43420;BME280;29017;51.514;-0.178;2023-07-13T06:05:20;101121.81;;;18.12;81.28
43420;BME280;29017;51.514;-0.178;2023-07-13T06:07:49;101118.97;;;18.13;81.12
43420;BME280;29017;51.514;-0.178;2023-07-13T06:10:17;101116.91;;;18.15;80.63
43420;BME280;29017;51.514;-0.178;2023-07-13T06:12:44;101131.28;;;18.21;80.39
43420;BME280;29017;51.514;-0.178;2023-07-13T06:15:11;101135.44;;;18.23;80.62
43420;BME280;29017;51.514;-0.178;2023-07-13T06:17:39;101130.09;;;18.23;80.02
43420;BME280;29017;51.514;-0.178;2023-07-13T06:20:07;101141.00;;;18.35;80.57
43420;BME280;29017;51.514;-0.178;2023-07-13T06:22:35;101142.50;;;18.44;79.98
43420;BME280;29017;51.514;-0.178;2023-07-13T06:25:02;101136.38;;;18.50;79.96
43420;BME280;29017;51.514;-0.178;2023-07-13T06:27:30;101139.31;;;18.55;79.54
43420;BME280;29017;51.514;-0.178;2023-07-13T06:29:57;101145.66;;;18.54;78.86
43420;BME280;29017;51.514;-0.178;2023-07-13T06:32:25;101137.03;;;18.52;79.12
43420;BME280;29017;51.514;-0.178;2023-07-13T06:34:52;101139.31;;;18.55;79.06
43420;BME280;29017;51.514;-0.178;2023-07-13T06:37:20;101137.09;;;18.59;79.24
43420;BME280;29017;51.514;-0.178;2023-07-13T06:39:47;101138.34;;;18.63;78.90
43420;BME280;29017;51.514;-0.178;2023-07-13T06:42:16;101151.91;;;18.68;78.62
43420;BME280;29017;51.514;-0.178;2023-07-13T06:44:44;101145.75;;;18.67;78.18
43420;BME280;29017;51.514;-0.178;2023-07-13T06:47:11;101144.72;;;18.68;78.40
43420;BME280;29017;51.514;-0.178;2023-07-13T06:49:40;101145.34;;;18.70;78.31
43420;BME280;29017;51.514;-0.178;2023-07-13T06:52:07;101151.53;;;18.77;78.71
43420;BME280;29017;51.514;-0.178;2023-07-13T06:54:35;101149.28;;;18.81;78.12
43420;BME280;29017;51.514;-0.178;2023-07-13T06:57:02;101146.84;;;18.86;77.99
43420;BME280;29017;51.514;-0.178;2023-07-13T06:59:30;101157.13;;;18.89;78.30
43420;BME280;29017;51.514;-0.178;2023-07-13T07:01:57;101154.03;;;18.86;77.66
43420;BME280;29017;51.514;-0.178;2023-07-13T07:04:25;101153.19;;;18.85;78.08
43420;BME280;29017;51.514;-0.178;2023-07-13T07:06:52;101160.41;;;18.91;77.87
43420;BME280;29017;51.514;-0.178;2023-07-13T07:09:23;101159.63;;;18.97;78.43
43420;BME280;29017;51.514;-0.178;2023-07-13T07:11:50;101172.13;;;18.97;77.55
43420;BME280;29017;51.514;-0.178;2023-07-13T07:14:30;101174.38;;;18.93;77.61
43420;BME280;29017;51.514;-0.178;2023-07-13T07:16:58;101172.94;;;18.97;77.78
43420;BME280;29017;51.514;-0.178;2023-07-13T07:19:29;101164.31;;;18.95;77.85
43420;BME280;29017;51.514;-0.178;2023-07-13T07:21:57;101170.31;;;19.04;78.26
43420;BME280;29017;51.514;-0.178;2023-07-13T07:24:24;101171.16;;;19.11;76.78
43420;BME280;29017;51.514;-0.178;2023-07-13T07:26:51;101177.50;;;19.10;76.90
43420;BME280;29017;51.514;-0.178;2023-07-13T07:29:22;101180.16;;;19.10;77.31
43420;BME280;29017;51.514;-0.178;2023-07-13T07:31:56;101185.50;;;19.10;77.42
43420;BME280;29017;51.514;-0.178;2023-07-13T07:34:32;101176.94;;;19.14;77.20
43420;BME280;29017;51.514;-0.178;2023-07-13T07:37:01;101184.72;;;19.16;76.99
43420;BME280;29017;51.514;-0.178;2023-07-13T07:39:31;101183.88;;;19.15;77.07
43420;BME280;29017;51.514;-0.178;2023-07-13T07:41:59;101189.03;;;19.17;77.54
43420;BME280;29017;51.514;-0.178;2023-07-13T07:44:34;101193.16;;;19.19;77.41
43420;BME280;29017;51.514;-0.178;2023-07-13T07:47:02;101191.13;;;19.28;77.22
43420;BME280;29017;51.514;-0.178;2023-07-13T07:49:31;101200.22;;;19.47;76.67
43420;BME280;29017;51.514;-0.178;2023-07-13T07:51:59;101191.41;;;19.53;75.93
43420;BME280;29017;51.514;-0.178;2023-07-13T07:54:26;101197.41;;;19.55;76.08
43420;BME280;29017;51.514;-0.178;2023-07-13T07:57:17;101206.22;;;19.62;76.08
43420;BME280;29017;51.514;-0.178;2023-07-13T08:00:05;101210.53;;;19.76;76.09
43420;BME280;29017;51.514;-0.178;2023-07-13T08:02:36;101200.72;;;19.83;77.04
43420;BME280;29017;51.514;-0.178;2023-07-13T08:05:07;101208.09;;;19.88;77.30
43420;BME280;29017;51.514;-0.178;2023-07-13T08:07:39;101209.75;;;19.89;76.43
43420;BME280;29017;51.514;-0.178;2023-07-13T08:10:07;101209.75;;;19.82;75.53
43420;BME280;29017;51.514;-0.178;2023-07-13T08:12:36;101214.06;;;19.83;77.14
43420;BME280;29017;51.514;-0.178;2023-07-13T08:15:10;101202.16;;;19.86;75.96
43420;BME280;29017;51.514;-0.178;2023-07-13T08:17:38;101205.44;;;19.88;76.36
43420;BME280;29017;51.514;-0.178;2023-07-13T08:20:11;101204.59;;;19.87;76.37
43420;BME280;29017;51.514;-0.178;2023-07-13T08:22:38;101204.84;;;19.86;75.93
43420;BME280;29017;51.514;-0.178;2023-07-13T08:25:06;101208.09;;;19.88;76.44
43420;BME280;29017;51.514;-0.178;2023-07-13T08:27:34;101200.91;;;19.82;75.22
43420;BME280;29017;51.514;-0.178;2023-07-13T08:30:01;101201.50;;;19.77;75.99
43420;BME280;29017;51.514;-0.178;2023-07-13T08:32:29;101194.75;;;19.81;77.14
43420;BME280;29017;51.514;-0.178;2023-07-13T08:34:56;101200.91;;;19.82;76.02
43420;BME280;29017;51.514;-0.178;2023-07-13T08:37:24;101199.66;;;19.78;75.00
43420;BME280;29017;51.514;-0.178;2023-07-13T08:39:52;101202.13;;;19.73;75.63
43420;BME280;29017;51.514;-0.178;2023-07-13T08:47:36;101202.53;;;19.76;75.82
43420;BME280;29017;51.514;-0.178;2023-07-13T08:50:05;101200.91;;;19.82;75.55
43420;BME280;29017;51.514;-0.178;2023-07-13T08:52:39;101202.34;;;19.84;75.16
43420;BME280;29017;51.514;-0.178;2023-07-13T08:55:13;101201.34;;;19.85;74.59
43420;BME280;29017;51.514;-0.178;2023-07-13T08:57:43;101205.84;;;19.85;75.05
43420;BME280;29017;51.514;-0.178;2023-07-13T09:00:13;101203.16;;;19.91;75.38
43420;BME280;29017;51.514;-0.178;2023-07-13T09:02:46;101202.16;;;19.99;75.60
43420;BME280;29017;51.514;-0.178;2023-07-13T09:05:24;101208.34;;;20.06;75.19
43420;BME280;29017;51.514;-0.178;2023-07-13T09:10:43;101212.00;;;20.12;75.10
43420;BME280;29017;51.514;-0.178;2023-07-13T09:13:22;101204.19;;;20.17;75.18
43420;BME280;29017;51.514;-0.178;2023-07-13T09:15:53;101198.66;;;20.18;74.33
43420;BME280;29017;51.514;-0.178;2023-07-13T09:18:30;101206.88;;;20.17;74.40
43420;BME280;29017;51.514;-0.178;2023-07-13T09:21:03;101208.13;;;20.21;75.91
43420;BME280;29017;51.514;-0.178;2023-07-13T09:23:32;101211.63;;;20.21;74.91
43420;BME280;29017;51.514;-0.178;2023-07-13T09:28:43;101211.19;;;20.24;74.65
43420;BME280;29017;51.514;-0.178;2023-07-13T09:31:15;101205.44;;;20.27;74.26
43420;BME280;29017;51.514;-0.178;2023-07-13T09:33:43;101215.31;;;20.33;74.10
43420;BME280;29017;51.514;-0.178;2023-07-13T09:36:20;101206.69;;;20.38;73.87
43420;BME280;29017;51.514;-0.178;2023-07-13T09:38:49;101209.97;;;20.40;72.82
43420;BME280;29017;51.514;-0.178;2023-07-13T09:41:29;101214.06;;;20.42;72.84
43420;BME280;29017;51.514;-0.178;2023-07-13T09:46:29;101214.06;;;20.56;73.22
43420;BME280;29017;51.514;-0.178;2023-07-13T09:48:56;101214.03;;;20.62;73.27
43420;BME280;29017;51.514;-0.178;2023-07-13T09:51:24;101211.56;;;20.67;72.76
43420;BME280;29017;51.514;-0.178;2023-07-13T09:53:51;101210.72;;;20.80;72.60
43420;BME280;29017;51.514;-0.178;2023-07-13T09:56:20;101220.38;;;20.87;71.42
43420;BME280;29017;51.514;-0.178;2023-07-13T09:58:48;101211.50;;;20.93;71.43
43420;BME280;29017;51.514;-0.178;2023-07-13T10:01:15;101210.25;;;21.03;71.20
43420;BME280;29017;51.514;-0.178;2023-07-13T10:03:53;101206.06;;;21.13;70.85
43420;BME280;29017;51.514;-0.178;2023-07-13T10:06:22;101212.88;;;21.22;70.91
43420;BME280;29017;51.514;-0.178;2023-07-13T10:08:50;101212.22;;;21.27;69.14
43420;BME280;29017;51.514;-0.178;2023-07-13T10:11:22;101209.28;;;21.35;67.58
43420;BME280;29017;51.514;-0.178;2023-07-13T10:14:00;101214.66;;;21.35;67.46
43420;BME280;29017;51.514;-0.178;2023-07-13T10:16:32;101210.97;;;21.29;67.86
43420;BME280;29017;51.514;-0.178;2023-07-13T10:19:08;101211.41;;;21.26;67.81
43420;BME280;29017;51.514;-0.178;2023-07-13T10:21:49;101221.28;;;21.26;69.60
43420;BME280;29017;51.514;-0.178;2023-07-13T10:24:22;101227.28;;;21.21;69.22
43420;BME280;29017;51.514;-0.178;2023-07-13T10:29:24;101229.19;;;21.01;69.75
43420;BME280;29017;51.514;-0.178;2023-07-13T10:31:53;101227.97;;;20.90;71.13
43420;BME280;29017;51.514;-0.178;2023-07-13T10:34:20;101217.28;;;20.84;72.99
43420;BME280;29017;51.514;-0.178;2023-07-13T10:36:48;101212.75;;;20.84;73.99
43420;BME280;29017;51.514;-0.178;2023-07-13T10:39:22;101211.53;;;20.80;74.35
43420;BME280;29017;51.514;-0.178;2023-07-13T10:41:54;101208.03;;;20.80;75.39
43420;BME280;29017;51.514;-0.178;2023-07-13T10:44:28;101208.41;;;20.90;78.96
43420;BME280;29017;51.514;-0.178;2023-07-13T10:47:00;101212.31;;;20.94;77.28
43420;BME280;29017;51.514;-0.178;2023-07-13T10:49:29;101205.47;;;21.05;78.49
43420;BME280;29017;51.514;-0.178;2023-07-13T10:51:57;101210.63;;;21.13;75.69
43420;BME280;29017;51.514;-0.178;2023-07-13T10:54:31;101203.19;;;21.21;73.76
43420;BME280;29017;51.514;-0.178;2023-07-13T10:57:19;101205.59;;;21.29;73.66
43420;BME280;29017;51.514;-0.178;2023-07-13T10:59:49;101209.94;;;21.30;70.12
43420;BME280;29017;51.514;-0.178;2023-07-13T11:02:21;101207.25;;;21.30;68.96
43420;BME280;29017;51.514;-0.178;2023-07-13T11:04:49;101211.38;;;21.33;69.16
43420;BME280;29017;51.514;-0.178;2023-07-13T11:07:22;101212.81;;;21.29;69.24
43420;BME280;29017;51.514;-0.178;2023-07-13T11:09:53;101218.44;;;21.21;69.49
43420;BME280;29017;51.514;-0.178;2023-07-13T11:20:10;101213.09;;;21.14;72.07
43420;BME280;29017;51.514;-0.178;2023-07-13T11:28:05;101220.09;;;21.15;69.79
43420;BME280;29017;51.514;-0.178;2023-07-13T11:30:40;101210.22;;;21.16;69.62
43420;BME280;29017;51.514;-0.178;2023-07-13T11:33:14;101204.84;;;21.22;69.87
43420;BME280;29017;51.514;-0.178;2023-07-13T11:41:02;101197.03;;;21.52;67.93
43420;BME280;29017;51.514;-0.178;2023-07-13T11:43:30;101207.28;;;21.62;67.77
43420;BME280;29017;51.514;-0.178;2023-07-13T11:46:15;101207.66;;;21.65;65.52
43420;BME280;29017;51.514;-0.178;2023-07-13T11:48:52;101201.47;;;21.65;64.64
43420;BME280;29017;51.514;-0.178;2023-07-13T11:51:25;101207.25;;;21.68;65.44
43420;BME280;29017;51.514;-0.178;2023-07-13T11:53:54;101205.34;;;21.75;66.58
43420;BME280;29017;51.514;-0.178;2023-07-13T11:56:25;101204.31;;;21.76;65.63
43420;BME280;29017;51.514;-0.178;2023-07-13T11:58:54;101190.25;;;21.81;64.49
43420;BME280;29017;51.514;-0.178;2023-07-13T12:01:26;101190.41;;;21.86;63.76
43420;BME280;29017;51.514;-0.178;2023-07-13T12:04:02;101189.16;;;21.89;63.34
43420;BME280;29017;51.514;-0.178;2023-07-13T12:06:33;101190.16;;;21.94;64.06
43420;BME280;29017;51.514;-0.178;2023-07-13T12:09:11;101194.50;;;21.95;61.89
43420;BME280;29017;51.514;-0.178;2023-07-13T12:11:42;101190.31;;;21.99;61.92
43420;BME280;29017;51.514;-0.178;2023-07-13T12:14:15;101194.25;;;22.03;61.85
43420;BME280;29017;51.514;-0.178;2023-07-13T12:16:44;101187.22;;;22.02;60.09
43420;BME280;29017;51.514;-0.178;2023-07-13T12:19:21;101187.84;;;22.04;60.30
43420;BME280;29017;51.514;-0.178;2023-07-13T12:21:50;101190.06;;;22.07;60.24
43420;BME280;29017;51.514;-0.178;2023-07-13T12:24:21;101182.41;;;22.11;61.09
43420;BME280;29017;51.514;-0.178;2023-07-13T12:27:00;101180.13;;;22.14;61.21
43420;BME280;29017;51.514;-0.178;2023-07-13T12:29:28;101185.84;;;22.18;60.75
43420;BME280;29017;51.514;-0.178;2023-07-13T12:31:55;101182.66;;;22.28;61.42
43420;BME280;29017;51.514;-0.178;2023-07-13T12:34:25;101179.31;;;22.32;60.53
43420;BME280;29017;51.514;-0.178;2023-07-13T12:36:55;101190.22;;;22.37;61.78
43420;BME280;29017;51.514;-0.178;2023-07-13T12:39:27;101191.63;;;22.40;61.35
43420;BME280;29017;51.514;-0.178;2023-07-13T12:44:43;101192.06;;;22.37;61.72
43420;BME280;29017;51.514;-0.178;2023-07-13T12:47:13;101198.03;;;22.39;62.53
43420;BME280;29017;51.514;-0.178;2023-07-13T12:49:43;101185.22;;;22.41;61.57
43420;BME280;29017;51.514;-0.178;2023-07-13T12:52:22;101184.31;;;22.47;60.42
43420;BME280;29017;51.514;-0.178;2023-07-13T12:54:54;101190.88;;;22.51;61.04
43420;BME280;29017;51.514;-0.178;2023-07-13T12:57:32;101179.06;;;22.58;60.54
43420;BME280;29017;51.514;-0.178;2023-07-13T12:59:59;101185.16;;;22.66;60.61
43420;BME280;29017;51.514;-0.178;2023-07-13T13:02:29;101192.78;;;22.69;59.93
43420;BME280;29017;51.514;-0.178;2023-07-13T13:04:58;101187.59;;;22.74;60.09
43420;BME280;29017;51.514;-0.178;2023-07-13T13:07:25;101186.91;;;22.78;60.20
43420;BME280;29017;51.514;-0.178;2023-07-13T13:09:53;101190.78;;;22.82;60.11
43420;BME280;29017;51.514;-0.178;2023-07-13T13:12:21;101182.94;;;22.81;59.40
43420;BME280;29017;51.514;-0.178;2023-07-13T13:14:49;101177.72;;;22.86;59.96
43420;BME280;29017;51.514;-0.178;2023-07-13T13:17:19;101172.97;;;22.88;60.72
43420;BME280;29017;51.514;-0.178;2023-07-13T13:19:48;101176.59;;;22.93;58.88
43420;BME280;29017;51.514;-0.178;2023-07-13T13:22:15;101173.25;;;22.98;59.51
43420;BME280;29017;51.514;-0.178;2023-07-13T13:24:42;101182.06;;;23.05;58.95
43420;BME280;29017;51.514;-0.178;2023-07-13T13:27:19;101169.34;;;23.12;58.42
43420;BME280;29017;51.514;-0.178;2023-07-13T13:29:50;101168.44;;;23.18;57.67
43420;BME280;29017;51.514;-0.178;2023-07-13T13:32:19;101167.31;;;23.26;57.05